createdAt,value
2022-08-20T00:00:02.132Z,80.08
2022-08-20T00:01:02.575Z,80.90
2022-08-20T00:02:02.176Z,81.20
2022-08-20T00:03:02.101Z,81.10
2022-08-20T00:04:02.094Z,81.70
2022-08-20T00:05:02.083Z,81.20
2022-08-20T00:06:02.083Z,81.30
2022-08-20T00:07:02.089Z,81.20
2022-08-20T00:08:02.055Z,81.56
2022-08-20T00:09:02.038Z,81.50
2022-08-20T00:10:02.035Z,81.46
2022-08-20T00:11:02.022Z,81.50
2022-08-20T00:12:02.032Z,81.30
2022-08-20T00:13:02.003Z,80.55
2022-08-20T00:14:01.999Z,81.16
2022-08-20T00:15:01.990Z,80.85
2022-08-20T00:16:01.982Z,80.15
2022-08-20T00:17:01.987Z,80.25
2022-08-20T00:18:01.958Z,80.25
2022-08-20T00:19:01.947Z,80.05
2022-08-20T00:20:01.938Z,80.25
2022-08-20T00:21:01.918Z,80.76
2022-08-20T00:22:01.936Z,80.90
2022-08-20T00:23:01.911Z,80.39
2022-08-20T00:24:01.897Z,81.10
2022-08-20T00:25:01.899Z,81.84
2022-08-20T00:26:01.877Z,82.24
2022-08-20T00:27:01.872Z,82.04
2022-08-20T00:28:01.864Z,82.14
2022-08-20T00:29:01.846Z,81.84
2022-08-20T00:30:01.840Z,82.35
2022-08-20T00:31:01.825Z,82.85
2022-08-20T00:32:01.833Z,83.40
2022-08-20T00:33:01.811Z,83.70
2022-08-20T00:34:01.796Z,83.29
2022-08-20T00:35:01.787Z,82.89
2022-08-20T00:36:01.775Z,83.29
2022-08-20T00:37:01.790Z,83.19
2022-08-20T00:38:01.984Z,83.84
2022-08-20T00:39:01.749Z,83.64
2022-08-20T00:40:01.892Z,83.80
2022-08-20T00:41:01.736Z,83.60
2022-08-20T00:42:01.714Z,84.34
2022-08-20T00:43:02.015Z,83.50
2022-08-20T00:44:01.701Z,83.64
2022-08-20T00:45:01.684Z,83.74
2022-08-20T00:46:01.738Z,83.94
2022-08-20T00:47:01.668Z,84.25
2022-08-20T00:48:01.672Z,84.55
2022-08-20T00:49:01.799Z,83.94
2022-08-20T00:50:01.629Z,84.14
2022-08-20T00:51:01.628Z,84.00
2022-08-20T00:52:01.611Z,83.90
2022-08-20T00:53:01.618Z,84.00
2022-08-20T00:54:01.746Z,83.50
2022-08-20T00:55:01.594Z,83.90
2022-08-20T00:56:01.573Z,83.60
2022-08-20T00:57:01.577Z,83.90
2022-08-20T00:58:02.149Z,83.70
2022-08-20T00:59:01.549Z,84.20
2022-08-20T01:00:01.536Z,83.64
2022-08-20T01:01:01.539Z,84.14
2022-08-20T01:02:01.546Z,84.95
2022-08-20T01:03:01.523Z,84.85
2022-08-20T01:04:01.616Z,84.65
2022-08-20T01:05:01.480Z,84.85
2022-08-20T01:06:01.468Z,84.89
2022-08-20T01:07:01.542Z,84.95
2022-08-20T01:08:01.467Z,84.85
2022-08-20T01:09:01.458Z,84.75
2022-08-20T01:10:01.462Z,84.19
2022-08-20T01:11:01.427Z,85.10
2022-08-20T01:12:01.413Z,85.44
2022-08-20T01:13:01.452Z,85.54
2022-08-20T01:14:01.391Z,86.25
2022-08-20T01:15:01.403Z,86.35
2022-08-20T01:16:01.399Z,86.55
2022-08-20T01:17:01.360Z,86.55
2022-08-20T01:18:01.377Z,86.15
2022-08-20T01:19:01.352Z,86.05
2022-08-20T01:20:01.337Z,86.10
2022-08-20T01:21:01.332Z,86.00
2022-08-20T01:22:01.464Z,86.05
2022-08-20T01:23:01.326Z,86.21
2022-08-20T01:24:01.291Z,86.10
2022-08-20T01:25:01.291Z,85.60
2022-08-20T01:26:01.275Z,85.80
2022-08-20T01:27:01.273Z,86.10
2022-08-20T01:28:01.479Z,85.50
2022-08-20T01:29:01.250Z,85.16
2022-08-20T01:30:01.234Z,84.95
2022-08-20T01:31:01.473Z,84.89
2022-08-20T01:32:01.223Z,85.10
2022-08-20T01:33:01.227Z,84.69
2022-08-20T01:34:01.199Z,84.79
2022-08-20T01:35:01.191Z,85.39
2022-08-20T01:36:01.178Z,85.30
2022-08-20T01:37:01.166Z,84.79
2022-08-20T01:38:01.168Z,84.89
2022-08-20T01:39:01.150Z,84.59
2022-08-20T01:40:01.196Z,84.99
2022-08-20T01:41:01.134Z,84.19
2022-08-20T01:42:01.111Z,84.25
2022-08-20T01:43:01.123Z,84.28
2022-08-20T01:44:01.096Z,84.08
2022-08-20T01:45:01.905Z,84.89
2022-08-20T01:46:01.079Z,84.99
2022-08-20T01:47:01.065Z,84.89
2022-08-20T01:48:01.165Z,84.19
2022-08-20T01:49:01.052Z,84.14
2022-08-20T01:50:01.035Z,84.04
2022-08-20T01:51:01.027Z,84.79
2022-08-20T01:52:01.019Z,84.39
2022-08-20T01:53:01.026Z,84.99
2022-08-20T01:54:01.001Z,84.69
2022-08-20T01:55:00.991Z,84.59
2022-08-20T01:56:01.023Z,84.99
2022-08-20T01:57:00.978Z,85.19
2022-08-20T01:58:00.973Z,85.13
2022-08-20T01:59:00.958Z,85.19
2022-08-20T02:00:00.938Z,85.19
2022-08-20T02:01:00.933Z,85.10
2022-08-20T02:02:00.964Z,85.39
2022-08-20T02:03:00.924Z,85.80
2022-08-20T02:04:00.904Z,85.39
2022-08-20T02:05:00.895Z,85.39
2022-08-20T02:06:00.932Z,85.60
2022-08-20T02:07:00.871Z,85.80
2022-08-20T02:08:00.876Z,85.80
2022-08-20T02:09:00.877Z,85.39
2022-08-20T02:10:00.842Z,85.30
2022-08-20T02:11:00.851Z,85.19
2022-08-20T02:12:00.825Z,84.85
2022-08-20T02:13:00.835Z,84.48
2022-08-20T02:14:00.801Z,84.14
2022-08-20T02:15:00.801Z,84.79
2022-08-20T02:16:00.787Z,85.16
2022-08-20T02:17:00.818Z,84.14
2022-08-20T02:18:00.777Z,84.04
2022-08-20T02:19:00.755Z,84.45
2022-08-20T02:20:00.799Z,83.54
2022-08-20T02:21:00.736Z,83.33
2022-08-20T02:22:00.728Z,83.84
2022-08-20T02:23:00.732Z,83.13
2022-08-20T02:24:00.700Z,83.84
2022-08-20T02:25:00.697Z,83.54
2022-08-20T02:26:00.683Z,84.69
2022-08-20T02:27:00.673Z,84.79
2022-08-20T02:28:00.678Z,85.44
2022-08-20T02:29:01.232Z,85.74
2022-08-20T02:30:00.687Z,86.35
2022-08-20T02:31:00.639Z,86.35
2022-08-20T02:32:32.770Z,86.55
2022-08-20T02:33:01.633Z,85.94
2022-08-20T02:34:21.689Z,86.15
2022-08-20T02:35:01.621Z,86.05
2022-08-20T02:36:00.587Z,85.50
2022-08-20T02:37:00.580Z,85.60
2022-08-20T02:38:00.589Z,85.60
2022-08-20T02:39:00.563Z,85.39
2022-08-20T02:40:00.723Z,84.69
2022-08-20T02:41:00.543Z,84.69
2022-08-20T02:42:00.524Z,84.75
2022-08-20T02:43:00.597Z,84.79
2022-08-20T02:44:00.512Z,84.99
2022-08-20T02:45:00.498Z,85.36
2022-08-20T02:46:00.484Z,84.48
2022-08-20T02:47:00.493Z,84.65
2022-08-20T02:48:00.482Z,84.25
2022-08-20T02:49:00.461Z,84.85
2022-08-20T02:50:00.444Z,84.55
2022-08-20T02:51:00.443Z,84.85
2022-08-20T02:52:00.442Z,84.75
2022-08-20T02:53:00.435Z,84.95
2022-08-20T02:54:00.409Z,84.65
2022-08-20T02:55:00.401Z,84.65
2022-08-20T02:56:00.390Z,84.85
2022-08-20T02:57:00.377Z,84.95
2022-08-20T02:58:00.612Z,85.25
2022-08-20T02:59:00.363Z,85.10
2022-08-20T03:00:00.357Z,85.05
2022-08-20T03:01:00.369Z,84.99
2022-08-20T03:02:01.156Z,85.05
2022-08-20T03:03:00.337Z,85.46
2022-08-20T03:04:00.310Z,85.46
2022-08-20T03:05:00.311Z,85.30
2022-08-20T03:06:00.283Z,85.16
2022-08-20T03:07:00.282Z,84.89
2022-08-20T03:08:00.282Z,84.89
2022-08-20T03:09:00.274Z,84.85
2022-08-20T03:10:00.254Z,84.04
2022-08-20T03:11:00.244Z,84.95
2022-08-20T03:12:00.229Z,84.85
2022-08-20T03:13:00.342Z,84.45
2022-08-20T03:14:00.232Z,84.04
2022-08-20T03:15:00.218Z,84.75
2022-08-20T03:16:00.193Z,84.19
2022-08-20T03:17:00.178Z,83.74
2022-08-20T03:18:00.185Z,83.84
2022-08-20T03:19:00.157Z,83.74
2022-08-20T03:20:00.172Z,84.34
2022-08-20T03:21:00.145Z,84.45
2022-08-20T03:22:00.149Z,84.69
2022-08-20T03:23:00.193Z,84.89
2022-08-20T03:24:00.114Z,84.89
2022-08-20T03:25:00.107Z,85.39
2022-08-20T03:26:00.091Z,85.80
2022-08-20T03:27:00.087Z,85.90
2022-08-20T03:28:00.264Z,86.51
2022-08-20T03:29:00.066Z,86.10
2022-08-20T03:30:00.052Z,86.51
2022-08-20T03:31:00.042Z,86.41
2022-08-20T03:32:00.031Z,85.70
2022-08-20T03:33:00.040Z,85.50
2022-08-20T03:34:00.007Z,85.80
2022-08-20T03:35:00.006Z,85.60
2022-08-20T03:35:59.990Z,85.90
2022-08-20T03:36:59.978Z,85.80
2022-08-20T03:37:59.988Z,85.60
2022-08-20T03:38:59.972Z,85.80
2022-08-20T03:39:59.995Z,86.00
2022-08-20T03:40:59.948Z,86.15
2022-08-20T03:41:59.935Z,86.15
2022-08-20T03:42:59.941Z,86.55
2022-08-20T03:43:59.909Z,87.16
2022-08-20T03:44:59.904Z,87.56
2022-08-20T03:45:59.890Z,87.77
2022-08-20T03:46:59.879Z,87.97
2022-08-20T03:47:59.876Z,87.62
2022-08-20T03:49:00.788Z,86.76
2022-08-20T03:49:59.846Z,86.87
2022-08-20T03:50:59.842Z,86.41
2022-08-20T03:51:59.828Z,85.36
2022-08-20T03:52:59.838Z,85.90
2022-08-20T03:53:59.809Z,85.90
2022-08-20T03:54:59.807Z,85.80
2022-08-20T03:56:02.370Z,86.10
2022-08-20T03:56:59.781Z,86.00
2022-08-20T03:57:59.788Z,86.41
2022-08-20T03:58:59.769Z,86.00
2022-08-20T03:59:59.746Z,86.31
2022-08-20T04:00:59.779Z,86.27
2022-08-20T04:01:59.783Z,86.91
2022-08-20T04:02:59.720Z,86.91
2022-08-20T04:03:59.728Z,86.82
2022-08-20T04:04:59.704Z,86.61
2022-08-20T04:05:59.695Z,86.37
2022-08-20T04:06:59.683Z,86.51
2022-08-20T04:08:03.174Z,86.82
2022-08-20T04:08:59.666Z,86.47
2022-08-20T04:09:59.646Z,86.37
2022-08-20T04:10:59.685Z,86.37
2022-08-20T04:11:59.631Z,86.27
2022-08-20T04:12:59.635Z,86.47
2022-08-20T04:13:59.613Z,86.87
2022-08-20T04:14:59.608Z,86.67
2022-08-20T04:15:59.594Z,86.02
2022-08-20T04:16:59.586Z,85.86
2022-08-20T04:17:59.589Z,85.62
2022-08-20T04:19:02.545Z,85.76
2022-08-20T04:19:59.549Z,85.22
2022-08-20T04:20:59.539Z,85.02
2022-08-20T04:21:59.529Z,85.11
2022-08-20T04:22:59.810Z,85.11
2022-08-20T04:23:59.512Z,85.02
2022-08-20T04:24:59.502Z,85.11
2022-08-20T04:25:59.494Z,85.02
2022-08-20T04:26:59.522Z,85.11
2022-08-20T04:27:59.490Z,85.02
2022-08-20T04:28:59.475Z,85.42
2022-08-20T04:29:59.451Z,85.42
2022-08-20T04:30:59.449Z,85.58
2022-08-20T04:31:59.432Z,85.68
2022-08-20T04:32:59.418Z,85.38
2022-08-20T04:33:59.433Z,85.11
2022-08-20T04:34:59.403Z,85.17
2022-08-20T04:35:59.400Z,85.48
2022-08-20T04:36:59.391Z,85.48
2022-08-20T04:37:59.376Z,85.17
2022-08-20T04:38:59.379Z,85.42
2022-08-20T04:39:59.420Z,85.28
2022-08-20T04:40:59.350Z,85.38
2022-08-20T04:41:59.338Z,85.17
2022-08-20T04:42:59.331Z,85.38
2022-08-20T04:43:59.327Z,84.97
2022-08-20T04:44:59.403Z,85.28
2022-08-20T04:45:59.298Z,85.03
2022-08-20T04:46:59.285Z,84.77
2022-08-20T04:47:59.283Z,84.33
2022-08-20T04:48:59.281Z,83.76
2022-08-20T04:49:59.258Z,83.96
2022-08-20T04:50:59.247Z,84.06
2022-08-20T04:51:59.240Z,83.96
2022-08-20T04:52:59.234Z,84.67
2022-08-20T04:53:59.288Z,84.97
2022-08-20T04:54:59.206Z,85.31
2022-08-20T04:55:59.203Z,85.93
2022-08-20T04:56:59.196Z,85.93
2022-08-20T04:57:59.178Z,85.58
2022-08-20T04:58:59.286Z,85.52
2022-08-20T04:59:59.622Z,85.48
2022-08-20T05:01:01.338Z,85.72
2022-08-20T05:01:59.138Z,85.42
2022-08-20T05:02:59.124Z,85.72
2022-08-20T05:03:59.133Z,85.62
2022-08-20T05:04:59.104Z,85.58
2022-08-20T05:05:59.101Z,85.52
2022-08-20T05:06:59.087Z,85.17
2022-08-20T05:07:59.077Z,85.48
2022-08-20T05:08:59.083Z,85.58
2022-08-20T05:09:59.056Z,85.38
2022-08-20T05:11:01.207Z,85.28
2022-08-20T05:12:00.039Z,84.87
2022-08-20T05:12:59.036Z,84.87
2022-08-20T05:13:59.051Z,84.83
2022-08-20T05:14:59.083Z,84.73
2022-08-20T05:15:59.020Z,84.63
2022-08-20T05:16:58.987Z,84.03
2022-08-20T05:17:58.986Z,84.03
2022-08-20T05:18:59.081Z,83.92
2022-08-20T05:19:58.957Z,84.33
2022-08-20T05:20:58.947Z,84.03
2022-08-20T05:21:58.939Z,83.98
2022-08-20T05:22:58.928Z,84.53
2022-08-20T05:23:58.934Z,84.12
2022-08-20T05:24:58.918Z,83.88
2022-08-20T05:25:58.934Z,83.48
2022-08-20T05:26:58.907Z,83.58
2022-08-20T05:27:58.926Z,83.38
2022-08-20T05:28:59.535Z,84.05
2022-08-20T05:29:58.864Z,83.04
2022-08-20T05:30:58.842Z,82.47
2022-08-20T05:31:58.843Z,82.07
2022-08-20T05:32:58.831Z,82.78
2022-08-20T05:33:59.195Z,82.98
2022-08-20T05:34:58.807Z,83.28
2022-08-20T05:35:58.812Z,83.38
2022-08-20T05:36:58.789Z,83.07
2022-08-20T05:37:58.790Z,83.54
2022-08-20T05:38:58.791Z,83.74
2022-08-20T05:39:58.807Z,83.34
2022-08-20T05:40:58.757Z,82.64
2022-08-20T05:41:58.745Z,83.44
2022-08-20T05:42:58.756Z,83.24
2022-08-20T05:43:58.753Z,83.04
2022-08-20T05:44:58.732Z,83.95
2022-08-20T05:45:58.714Z,83.54
2022-08-20T05:46:58.697Z,83.64
2022-08-20T05:47:58.869Z,83.74
2022-08-20T05:48:59.376Z,83.54
2022-08-20T05:49:58.671Z,83.95
2022-08-20T05:50:58.658Z,83.34
2022-08-20T05:51:58.659Z,83.44
2022-08-20T05:52:58.639Z,84.05
2022-08-20T05:53:59.753Z,84.25
2022-08-20T05:54:58.636Z,83.64
2022-08-20T05:55:58.615Z,83.30
2022-08-20T05:56:58.597Z,83.20
2022-08-20T05:57:58.600Z,83.60
2022-08-20T05:58:58.597Z,83.10
2022-08-20T05:59:58.579Z,83.40
2022-08-20T06:00:58.624Z,83.26
2022-08-20T06:01:58.551Z,83.36
2022-08-20T06:02:58.546Z,82.25
2022-08-20T06:03:58.555Z,82.15
2022-08-20T06:04:58.525Z,82.35
2022-08-20T06:05:58.520Z,82.45
2022-08-20T06:06:58.504Z,81.61
2022-08-20T06:08:07.752Z,81.61
2022-08-20T06:08:59.503Z,82.01
2022-08-20T06:09:58.485Z,81.30
2022-08-20T06:10:58.468Z,80.70
2022-08-20T06:11:59.163Z,80.50
2022-08-20T06:12:58.447Z,80.90
2022-08-20T06:13:58.454Z,80.90
2022-08-20T06:14:58.426Z,80.90
2022-08-20T06:15:58.435Z,81.01
2022-08-20T06:16:59.148Z,81.30
2022-08-20T06:17:58.750Z,80.90
2022-08-20T06:18:58.565Z,81.30
2022-08-20T06:19:58.382Z,81.61
2022-08-20T06:20:58.371Z,81.91
2022-08-20T06:21:58.359Z,82.01
2022-08-20T06:22:58.347Z,81.71
2022-08-20T06:24:00.988Z,82.01
2022-08-20T06:24:58.336Z,82.01
2022-08-20T06:25:58.357Z,81.98
2022-08-20T06:26:58.309Z,81.87
2022-08-20T06:27:58.495Z,81.77
2022-08-20T06:28:58.416Z,81.98
2022-08-20T06:29:58.287Z,81.27
2022-08-20T06:30:58.274Z,81.07
2022-08-20T06:31:58.267Z,80.87
2022-08-20T06:32:58.272Z,80.66
2022-08-20T06:33:58.260Z,79.82
2022-08-20T06:34:58.236Z,79.92
2022-08-20T06:35:58.224Z,79.82
2022-08-20T06:36:58.214Z,80.83
2022-08-20T06:37:58.364Z,79.82
2022-08-20T06:38:58.207Z,80.83
2022-08-20T06:39:58.263Z,81.79
2022-08-20T06:40:58.180Z,81.99
2022-08-20T06:41:58.190Z,83.11
2022-08-20T06:42:58.160Z,81.99
2022-08-20T06:43:58.147Z,81.39
2022-08-20T06:44:58.147Z,82.10
2022-08-20T06:45:58.127Z,83.31
2022-08-20T06:46:58.112Z,83.40
2022-08-20T06:47:58.346Z,82.80
2022-08-20T06:48:58.119Z,82.20
2022-08-20T06:49:58.105Z,82.30
2022-08-20T06:50:58.102Z,83.51
2022-08-20T06:51:58.077Z,82.76
2022-08-20T06:52:58.060Z,83.06
2022-08-20T06:53:58.116Z,82.22
2022-08-20T06:54:58.056Z,83.23
2022-08-20T06:55:58.037Z,83.53
2022-08-20T06:56:58.022Z,83.09
2022-08-20T06:57:58.048Z,83.29
2022-08-20T06:58:58.004Z,83.04
2022-08-20T06:59:58.010Z,83.25
2022-08-20T07:01:01.083Z,83.25
2022-08-20T07:01:57.975Z,81.80
2022-08-20T07:02:58.153Z,83.01
2022-08-20T07:03:57.958Z,81.30
2022-08-20T07:04:57.964Z,81.40
2022-08-20T07:05:57.942Z,81.24
2022-08-20T07:06:57.925Z,80.83
2022-08-20T07:07:57.912Z,80.43
2022-08-20T07:08:57.906Z,80.94
2022-08-20T07:09:57.916Z,79.93
2022-08-20T07:10:57.886Z,80.54
2022-08-20T07:11:57.881Z,80.94
2022-08-20T07:12:58.085Z,81.68
2022-08-20T07:13:57.869Z,82.08
2022-08-20T07:14:57.856Z,82.08
2022-08-20T07:15:57.845Z,81.78
2022-08-20T07:16:57.823Z,81.68
2022-08-20T07:18:01.195Z,81.88
2022-08-20T07:18:57.808Z,81.88
2022-08-20T07:19:57.824Z,83.99
2022-08-20T07:20:57.837Z,84.74
2022-08-20T07:21:57.785Z,84.33
2022-08-20T07:22:58.110Z,84.63
2022-08-20T07:23:57.765Z,85.53
2022-08-20T07:24:57.769Z,85.84
2022-08-20T07:25:57.745Z,86.04
2022-08-20T07:26:57.731Z,86.34
2022-08-20T07:27:57.728Z,85.94
2022-08-20T07:28:57.718Z,86.34
2022-08-20T07:29:57.704Z,86.14
2022-08-20T07:30:57.924Z,86.14
2022-08-20T07:31:57.685Z,86.85
2022-08-20T07:32:57.967Z,86.54
2022-08-20T07:33:57.661Z,87.15
2022-08-20T07:34:57.652Z,86.85
2022-08-20T07:35:57.666Z,86.79
2022-08-20T07:36:57.637Z,86.85
2022-08-20T07:37:57.639Z,86.99
2022-08-20T07:38:57.618Z,87.39
2022-08-20T07:39:57.671Z,87.95
2022-08-20T07:40:57.704Z,88.15
2022-08-20T07:41:57.591Z,88.25
2022-08-20T07:42:57.811Z,87.69
2022-08-20T07:43:57.568Z,88.25
2022-08-20T07:44:57.552Z,88.45
2022-08-20T07:45:57.567Z,88.25
2022-08-20T07:46:57.531Z,87.65
2022-08-20T07:47:57.552Z,87.65
2022-08-20T07:48:57.524Z,88.65
2022-08-20T07:49:57.513Z,88.39
2022-08-20T07:50:57.516Z,87.99
2022-08-20T07:51:57.495Z,88.85
2022-08-20T07:52:57.597Z,88.65
2022-08-20T07:53:57.483Z,88.75
2022-08-20T07:54:57.467Z,88.49
2022-08-20T07:55:59.062Z,89.20
2022-08-20T07:56:57.447Z,89.66
2022-08-20T07:57:57.438Z,88.65
2022-08-20T07:58:57.426Z,89.06
2022-08-20T07:59:57.423Z,89.46
2022-08-20T08:00:57.450Z,89.76
2022-08-20T08:01:57.409Z,90.16
2022-08-20T08:02:57.504Z,89.51
2022-08-20T08:03:57.385Z,89.42
2022-08-20T08:04:57.369Z,90.12
2022-08-20T08:05:57.377Z,88.81
2022-08-20T08:06:57.353Z,88.55
2022-08-20T08:07:57.355Z,89.06
2022-08-20T08:08:57.329Z,90.06
2022-08-20T08:09:57.325Z,90.26
2022-08-20T08:10:57.333Z,89.46
2022-08-20T08:11:57.304Z,88.45
2022-08-20T08:12:57.430Z,88.81
2022-08-20T08:13:57.285Z,89.76
2022-08-20T08:14:57.273Z,89.26
2022-08-20T08:15:57.282Z,88.95
2022-08-20T08:16:57.274Z,89.62
2022-08-20T08:17:57.281Z,90.26
2022-08-20T08:18:57.233Z,90.16
2022-08-20T08:19:57.231Z,89.51
2022-08-20T08:20:57.596Z,88.81
2022-08-20T08:21:57.210Z,88.15
2022-08-20T08:22:57.330Z,88.21
2022-08-20T08:23:57.199Z,89.22
2022-08-20T08:24:57.789Z,89.62
2022-08-20T08:25:57.190Z,88.45
2022-08-20T08:26:57.164Z,89.11
2022-08-20T08:27:57.163Z,90.22
2022-08-20T08:28:57.144Z,89.82
2022-08-20T08:29:57.138Z,89.72
2022-08-20T08:30:57.133Z,90.02
2022-08-20T08:31:57.115Z,89.82
2022-08-20T08:32:57.211Z,88.81
2022-08-20T08:33:57.097Z,89.72
2022-08-20T08:34:57.092Z,90.06
2022-08-20T08:35:57.088Z,90.52
2022-08-20T08:36:57.068Z,90.62
2022-08-20T08:37:57.056Z,91.28
2022-08-20T08:38:57.043Z,91.88
2022-08-20T08:39:57.091Z,91.78
2022-08-20T08:40:59.858Z,91.58
2022-08-20T08:41:57.024Z,91.44
2022-08-20T08:42:57.103Z,90.94
2022-08-20T08:43:57.005Z,90.79
2022-08-20T08:44:56.998Z,90.39
2022-08-20T08:45:56.999Z,90.29
2022-08-20T08:46:56.973Z,90.05
2022-08-20T08:47:56.965Z,88.54
2022-08-20T08:48:56.960Z,87.24
2022-08-20T08:49:56.952Z,88.04
2022-08-20T08:50:56.949Z,88.48
2022-08-20T08:51:56.948Z,88.18
2022-08-20T08:52:57.025Z,89.34
2022-08-20T08:53:56.916Z,89.14
2022-08-20T08:54:56.907Z,88.04
2022-08-20T08:55:56.911Z,87.74
2022-08-20T08:56:56.883Z,88.70
2022-08-20T08:57:56.886Z,89.04
2022-08-20T08:58:56.861Z,89.14
2022-08-20T09:00:03.525Z,87.74
2022-08-20T09:01:02.038Z,88.54
2022-08-20T09:01:58.021Z,89.25
2022-08-20T09:02:57.067Z,88.84
2022-08-20T09:03:56.812Z,89.04
2022-08-20T09:04:56.800Z,89.45
2022-08-20T09:05:57.148Z,88.14
2022-08-20T09:06:56.779Z,88.60
2022-08-20T09:07:56.772Z,86.30
2022-08-20T09:08:56.765Z,86.19
2022-08-20T09:09:56.787Z,85.99
2022-08-20T09:10:56.740Z,87.20
2022-08-20T09:11:56.745Z,88.20
2022-08-20T09:12:56.785Z,86.46
2022-08-20T09:13:56.713Z,86.05
2022-08-20T09:14:56.699Z,86.76
2022-08-20T09:15:56.710Z,88.21
2022-08-20T09:16:56.682Z,89.68
2022-08-20T09:17:56.778Z,85.47
2022-08-20T09:18:56.663Z,84.37
2022-08-20T09:19:56.654Z,85.87
2022-08-20T09:20:56.658Z,84.33
2022-08-20T09:21:56.632Z,84.23
2022-08-20T09:22:56.757Z,86.33
2022-08-20T09:23:56.612Z,87.29
2022-08-20T09:24:56.603Z,87.75
2022-08-20T09:25:56.596Z,84.35
2022-08-20T09:26:56.601Z,82.95
2022-08-20T09:27:56.571Z,81.51
2022-08-20T09:28:56.567Z,82.61
2022-08-20T09:29:56.553Z,82.81
2022-08-20T09:30:56.548Z,84.01
2022-08-20T09:31:56.551Z,83.91
2022-08-20T09:32:56.644Z,85.37
2022-08-20T09:33:56.512Z,83.23
2022-08-20T09:34:56.567Z,84.43
2022-08-20T09:35:56.495Z,84.29
2022-08-20T09:36:56.505Z,82.09
2022-08-20T09:37:56.559Z,82.50
2022-08-20T09:38:56.461Z,82.56
2022-08-20T09:39:56.490Z,81.26
2022-08-20T09:40:56.471Z,80.62
2022-08-20T09:41:56.450Z,82.51
2022-08-20T09:42:56.610Z,80.42
2022-08-20T09:43:56.422Z,79.39
2022-08-20T09:44:56.416Z,77.83
2022-08-20T09:45:56.418Z,78.83
2022-08-20T09:46:56.410Z,80.38
2022-08-20T09:47:57.178Z,79.93
2022-08-20T09:48:56.383Z,78.79
2022-08-20T09:49:56.359Z,79.19
2022-08-20T09:50:56.358Z,79.05
2022-08-20T09:51:56.599Z,77.12
2022-08-20T09:52:56.340Z,80.30
2022-08-20T09:53:57.280Z,79.81
2022-08-20T09:54:56.315Z,77.12
2022-08-20T09:55:56.306Z,76.92
2022-08-20T09:56:56.321Z,75.16
2022-08-20T09:57:56.459Z,76.96
2022-08-20T09:58:58.953Z,76.86
2022-08-20T09:59:57.265Z,75.96
2022-08-20T10:00:56.260Z,77.36
2022-08-20T10:01:56.266Z,78.81
2022-08-20T10:02:56.239Z,77.12
2022-08-20T10:03:56.234Z,77.09
2022-08-20T10:04:56.228Z,77.72
2022-08-20T10:05:56.207Z,74.13
2022-08-20T10:06:56.211Z,71.75
2022-08-20T10:07:56.385Z,72.64
2022-08-20T10:08:56.181Z,76.32
2022-08-20T10:09:56.165Z,77.82
2022-08-20T10:10:56.162Z,79.27
2022-08-20T10:11:56.166Z,79.24
2022-08-20T10:12:56.139Z,76.32
2022-08-20T10:13:56.129Z,73.73
2022-08-20T10:14:56.121Z,74.19
2022-08-20T10:15:56.109Z,74.09
2022-08-20T10:16:56.238Z,73.46
2022-08-20T10:17:56.199Z,76.31
2022-08-20T10:18:56.087Z,77.00
2022-08-20T10:19:56.075Z,74.84
2022-08-20T10:20:56.075Z,69.06
2022-08-20T10:21:56.075Z,69.36
2022-08-20T10:22:56.055Z,69.49
2022-08-20T10:23:56.039Z,72.63
2022-08-20T10:24:56.027Z,72.43
2022-08-20T10:25:56.017Z,70.81
2022-08-20T10:26:56.027Z,70.71
2022-08-20T10:27:56.100Z,68.33
2022-08-20T10:28:55.991Z,67.44
2022-08-20T10:29:55.983Z,68.53
2022-08-20T10:30:55.981Z,67.35
2022-08-20T10:31:55.980Z,66.61
2022-08-20T10:32:55.958Z,67.44
2022-08-20T10:33:55.940Z,69.56
2022-08-20T10:34:55.940Z,71.64
2022-08-20T10:35:59.866Z,70.09
2022-08-20T10:36:55.942Z,69.23
2022-08-20T10:37:56.054Z,71.61
2022-08-20T10:38:55.899Z,73.00
2022-08-20T10:39:55.927Z,72.50
2022-08-20T10:40:55.886Z,70.85
2022-08-20T10:41:55.868Z,73.93
2022-08-20T10:42:55.881Z,72.34
2022-08-20T10:43:55.853Z,71.51
2022-08-20T10:44:55.844Z,73.50
2022-08-20T10:45:55.831Z,73.60
2022-08-20T10:46:57.228Z,73.07
2022-08-20T10:47:56.073Z,72.63
2022-08-20T10:48:55.803Z,69.43
2022-08-20T10:49:55.790Z,69.16
2022-08-20T10:50:55.802Z,71.74
2022-08-20T10:51:55.771Z,70.12
2022-08-20T10:52:55.785Z,69.06
2022-08-20T10:53:55.758Z,66.88
2022-08-20T10:54:55.753Z,69.26
2022-08-20T10:55:55.736Z,68.43
2022-08-20T10:56:55.738Z,66.91
2022-08-20T10:57:55.938Z,65.43
2022-08-20T10:58:55.709Z,66.52
2022-08-20T10:59:55.702Z,67.38
2022-08-20T11:00:55.698Z,65.89
2022-08-20T11:01:55.722Z,65.40
2022-08-20T11:02:55.694Z,65.56
2022-08-20T11:03:55.671Z,65.70
2022-08-20T11:04:55.661Z,63.22
2022-08-20T11:05:55.660Z,62.79
2022-08-20T11:06:55.638Z,66.36
2022-08-20T11:07:56.874Z,64.15
2022-08-20T11:08:57.008Z,60.56
2022-08-20T11:09:55.643Z,63.40
2022-08-20T11:10:55.607Z,64.78
2022-08-20T11:11:55.597Z,62.74
2022-08-20T11:12:55.642Z,62.57
2022-08-20T11:13:55.575Z,62.60
2022-08-20T11:14:55.568Z,63.32
2022-08-20T11:15:55.618Z,65.66
2022-08-20T11:16:55.553Z,66.62
2022-08-20T11:17:55.783Z,63.59
2022-08-20T11:18:55.676Z,63.83
2022-08-20T11:19:55.524Z,60.61
2022-08-20T11:20:55.515Z,59.30
2022-08-20T11:21:55.520Z,59.01
2022-08-20T11:22:55.524Z,59.03
2022-08-20T11:23:55.484Z,59.66
2022-08-20T11:24:55.492Z,59.42
2022-08-20T11:25:55.465Z,62.12
2022-08-20T11:26:55.470Z,60.63
2022-08-20T11:27:55.591Z,63.20
2022-08-20T11:28:55.442Z,63.40
2022-08-20T11:29:55.437Z,61.49
2022-08-20T11:30:55.421Z,60.54
2022-08-20T11:31:55.421Z,59.56
2022-08-20T11:32:55.430Z,59.23
2022-08-20T11:33:55.399Z,56.27
2022-08-20T11:34:55.387Z,56.50
2022-08-20T11:35:55.384Z,60.81
2022-08-20T11:36:55.384Z,60.39
2022-08-20T11:37:55.600Z,55.43
2022-08-20T11:38:55.356Z,54.33
2022-08-20T11:39:55.391Z,55.94
2022-08-20T11:40:55.343Z,53.90
2022-08-20T11:41:55.424Z,48.25
2022-08-20T11:43:15.932Z,53.72
2022-08-20T11:44:20.244Z,51.81
2022-08-20T11:44:56.310Z,51.93
2022-08-20T11:45:55.291Z,50.54
2022-08-20T11:46:55.290Z,47.99
2022-08-20T11:47:55.360Z,52.13
2022-08-20T11:48:55.275Z,53.85
2022-08-20T11:49:55.265Z,53.61
2022-08-20T11:50:55.260Z,55.63
2022-08-20T11:51:55.246Z,55.26
2022-08-20T11:52:55.252Z,55.68
2022-08-20T11:53:55.228Z,55.36
2022-08-20T11:54:55.273Z,55.51
2022-08-20T11:55:55.213Z,56.56
2022-08-20T11:56:55.207Z,51.64
2022-08-20T11:57:55.572Z,52.23
2022-08-20T11:58:55.190Z,50.93
2022-08-20T11:59:55.173Z,52.08
2022-08-20T12:00:55.170Z,51.54
2022-08-20T12:02:02.944Z,52.69
2022-08-20T12:02:56.500Z,50.61
2022-08-20T12:03:55.137Z,49.65
2022-08-20T12:04:55.135Z,48.23
2022-08-20T12:05:55.127Z,51.72
2022-08-20T12:06:55.118Z,50.07
2022-08-20T12:07:55.121Z,52.53
2022-08-20T12:08:55.099Z,49.40
2022-08-20T12:09:55.085Z,53.70
2022-08-20T12:10:55.079Z,50.71
2022-08-20T12:11:55.068Z,51.59
2022-08-20T12:12:55.200Z,53.78
2022-08-20T12:13:55.053Z,50.04
2022-08-20T12:14:55.393Z,51.87
2022-08-20T12:15:55.038Z,51.87
2022-08-20T12:16:55.028Z,54.13
2022-08-20T12:17:55.037Z,52.06
2022-08-20T12:18:55.010Z,54.21
2022-08-20T12:19:54.998Z,52.33
2022-08-20T12:20:55.010Z,51.84
2022-08-20T12:21:54.984Z,51.69
2022-08-20T12:22:55.263Z,53.50
2022-08-20T12:23:54.959Z,53.62
2022-08-20T12:24:54.964Z,54.98
2022-08-20T12:25:54.945Z,56.13
2022-08-20T12:26:54.932Z,59.05
2022-08-20T12:27:54.938Z,58.88
2022-08-20T12:28:54.917Z,59.74
2022-08-20T12:29:54.908Z,60.93
2022-08-20T12:30:54.915Z,60.46
2022-08-20T12:31:54.936Z,61.31
2022-08-20T12:32:54.887Z,62.43
2022-08-20T12:33:54.897Z,62.23
2022-08-20T12:34:54.867Z,62.49
2022-08-20T12:35:54.855Z,63.69
2022-08-20T12:36:54.853Z,63.92
2022-08-20T12:37:54.840Z,63.95
2022-08-20T12:38:54.844Z,65.24
2022-08-20T12:39:54.900Z,66.17
2022-08-20T12:40:54.814Z,66.77
2022-08-20T12:41:54.803Z,67.86
2022-08-20T12:42:54.813Z,67.07
2022-08-20T12:43:54.803Z,67.27
2022-08-20T12:44:54.784Z,66.90
2022-08-20T12:45:54.768Z,67.60
2022-08-20T12:46:54.769Z,67.33
2022-08-20T12:47:54.749Z,68.13
2022-08-20T12:48:54.754Z,69.13
2022-08-20T12:49:54.730Z,68.73
2022-08-20T12:50:54.725Z,69.26
2022-08-20T12:51:54.718Z,69.36